Time;durP1;ratioP1;P1;durP2;ratioP2;P2;SDS_P1;SDS_P2;PMS_P1;PMS_P2;Temp;Humidity;BMP_temperature;BMP_pressure;BME280_temperature;BME280_humidity;BME280_pressure;Samples;Min_cycle;Max_cycle;Signal;HPM_P1;HPM_P2
2021/12/23 00:01:08;;;;;;;84.60;35.70;;;;;;;-5.17;70.75;99940.42;102977;1317;97972;-77
2021/12/23 00:03:37;;;;;;;77.00;36.40;;;;;;;-5.18;70.62;99941.11;102960;1318;98326;-77
2021/12/23 00:06:04;;;;;;;78.90;37.90;;;;;;;-5.20;70.57;99940.91;104162;1317;111454;-77
2021/12/23 00:08:33;;;;;;;76.60;36.30;;;;;;;-5.22;70.57;99936.92;102920;1317;96535;-76
2021/12/23 00:11:01;;;;;;;79.10;37.60;;;;;;;-5.24;70.49;99938.12;103019;1320;107827;-78
2021/12/23 00:13:29;;;;;;;74.10;34.30;;;;;;;-5.29;70.43;99938.09;102914;1320;96393;-78
2021/12/23 00:18:44;;;;;;;74.90;34.40;;;;;;;-5.36;70.44;99933.56;103061;1319;111519;-78
2021/12/23 00:24:05;;;;;;;68.60;33.90;;;;;;;-5.46;70.34;99931.59;103050;1323;107797;-77
2021/12/23 00:26:32;;;;;;;72.90;35.10;;;;;;;-5.53;70.45;99931.21;103122;1326;95315;-76
2021/12/23 00:29:00;;;;;;;77.00;34.10;;;;;;;-5.60;70.41;99932.55;103074;1323;95764;-76
2021/12/23 00:31:28;;;;;;;79.20;35.80;;;;;;;-5.63;70.36;99930.79;103095;1320;111485;-78
2021/12/23 00:33:57;;;;;;;78.40;36.50;;;;;;;-5.66;70.35;99930.59;103095;1317;96455;-78
2021/12/23 00:36:25;;;;;;;68.70;34.10;;;;;;;-5.73;70.36;99927.79;103023;1317;107928;-78
2021/12/23 00:38:55;;;;;;;71.00;34.30;;;;;;;-5.76;70.32;99924.83;102932;1319;98028;-77
2021/12/23 00:41:30;;;;;;;79.10;38.30;;;;;;;-5.82;70.32;99924.96;103101;1317;95275;-82
2021/12/23 00:44:00;;;;;;;79.00;35.20;;;;;;;-5.86;70.31;99919.91;103114;1320;111116;-78
2021/12/23 00:46:28;;;;;;;83.60;40.30;;;;;;;-5.90;70.26;99918.66;103078;1319;95208;-78
2021/12/23 00:48:55;;;;;;;79.40;37.60;;;;;;;-5.96;70.33;99921.20;103082;1316;107653;-79
2021/12/23 00:51:23;;;;;;;75.50;36.50;;;;;;;-6.02;70.28;99917.20;103029;1317;97909;-81
2021/12/23 00:54:04;;;;;;;81.60;38.30;;;;;;;-6.13;70.21;99913.84;103064;1315;97927;-78
2021/12/23 00:56:39;;;;;;;77.80;37.70;;;;;;;-6.21;70.19;99910.51;103046;1318;111582;-78
2021/12/23 00:59:09;;;;;;;87.20;39.90;;;;;;;-6.32;70.07;99906.42;103053;1319;97909;-78
2021/12/23 01:01:37;;;;;;;91.00;43.60;;;;;;;-6.45;69.98;99903.89;103031;1316;107547;-79
2021/12/23 01:04:07;;;;;;;81.30;39.80;;;;;;;-6.54;70.06;99904.49;103045;1322;98609;-79
2021/12/23 01:06:37;;;;;;;84.70;36.50;;;;;;;-6.57;70.21;99901.88;103000;1320;97880;-79
2021/12/23 01:09:04;;;;;;;88.40;40.90;;;;;;;-6.59;70.20;99900.14;102995;1317;111069;-81
2021/12/23 01:11:33;;;;;;;84.40;38.70;;;;;;;-6.61;70.18;99899.41;103092;1317;98008;-79
2021/12/23 01:17:10;;;;;;;85.70;37.60;;;;;;;-6.61;70.27;99896.48;103008;1319;97975;-79
2021/12/23 01:19:40;;;;;;;75.30;33.50;;;;;;;-6.62;70.33;99896.47;103040;1321;98012;-77
2021/12/23 01:22:08;;;;;;;69.80;32.70;;;;;;;-6.60;70.48;99892.17;102945;1317;111582;-77
2021/12/23 01:24:37;;;;;;;71.60;33.90;;;;;;;-6.56;70.43;99889.80;103145;1320;97190;-79
2021/12/23 01:27:09;;;;;;;74.70;34.00;;;;;;;-6.52;70.53;99879.64;103068;1316;107896;-78
2021/12/23 01:29:38;;;;;;;71.00;33.20;;;;;;;-6.46;70.57;99879.54;103094;1316;96306;-78
2021/12/23 01:32:09;;;;;;;77.10;35.80;;;;;;;-6.41;70.46;99875.63;103152;1317;97943;-77
2021/12/23 01:34:37;;;;;;;73.80;33.40;;;;;;;-6.36;70.50;99872.21;102926;1315;112266;-78
2021/12/23 01:37:09;;;;;;;78.20;35.40;;;;;;;-6.32;70.63;99866.04;102985;1317;97902;-77
2021/12/23 01:39:36;;;;;;;80.90;37.20;;;;;;;-6.26;70.64;99862.27;103032;1320;107789;-79
2021/12/23 01:42:04;;;;;;;73.10;33.80;;;;;;;-6.21;70.42;99864.57;103172;1316;97934;-76
2021/12/23 01:44:32;;;;;;;71.20;33.20;;;;;;;-6.16;70.61;99861.17;103232;1317;95242;-77
2021/12/23 01:47:00;;;;;;;79.00;36.40;;;;;;;-6.08;70.66;99856.38;103233;1316;111069;-79
2021/12/23 01:49:28;;;;;;;74.60;33.90;;;;;;;-6.05;70.70;99857.63;103051;1320;97991;-77
2021/12/23 01:51:56;;;;;;;71.70;34.70;;;;;;;-6.00;70.56;99852.29;102955;1317;107881;-77
2021/12/23 01:54:23;;;;;;;76.40;35.70;;;;;;;-5.99;70.63;99849.70;103058;1317;97942;-77
2021/12/23 01:56:51;;;;;;;84.50;37.90;;;;;;;-6.02;70.36;99846.59;103067;1319;97961;-77
2021/12/23 01:59:20;;;;;;;81.30;36.70;;;;;;;-6.08;70.24;99844.63;103025;1317;111498;-77
2021/12/23 02:01:52;;;;;;;85.60;37.60;;;;;;;-6.10;70.38;99841.35;103101;1317;98444;-80
2021/12/23 02:04:20;;;;;;;86.00;38.60;;;;;;;-6.13;70.33;99843.23;103041;1320;108009;-78
2021/12/23 02:06:48;;;;;;;74.40;35.10;;;;;;;-6.19;70.37;99838.35;103159;1317;95586;-78
2021/12/23 02:09:15;;;;;;;83.90;39.00;;;;;;;-6.26;70.25;99832.77;103129;1316;97838;-78
2021/12/23 02:11:46;;;;;;;84.30;38.30;;;;;;;-6.34;70.35;99823.90;103037;1316;111380;-78
2021/12/23 02:14:19;;;;;;;91.70;41.00;;;;;;;-6.42;70.17;99825.56;103152;1320;97963;-78
2021/12/23 02:16:47;;;;;;;83.60;39.50;;;;;;;-6.50;70.31;99822.73;103151;1320;108106;-79
2021/12/23 02:19:20;;;;;;;83.30;39.20;;;;;;;-6.56;70.23;99819.58;103027;1317;97833;-80
2021/12/23 02:21:48;;;;;;;92.00;43.30;;;;;;;-6.63;70.27;99818.47;103131;1320;97892;-79
2021/12/23 02:24:17;;;;;;;90.20;40.10;;;;;;;-6.68;70.27;99817.04;103255;1317;111555;-79
2021/12/23 02:26:49;;;;;;;88.60;41.00;;;;;;;-6.73;70.28;99812.16;103239;1317;97959;-79
2021/12/23 02:29:18;;;;;;;87.50;38.00;;;;;;;-6.75;70.27;99812.16;103063;1323;107853;-78
2021/12/23 02:31:51;;;;;;;90.20;42.90;;;;;;;-6.80;70.28;99806.23;103225;1317;98097;-78
2021/12/23 02:34:21;;;;;;;97.40;40.80;;;;;;;-6.87;70.19;99801.68;103135;1316;97074;-79
2021/12/23 02:36:55;;;;;;;82.00;39.50;;;;;;;-6.91;70.28;99800.09;103095;1317;111966;-78
2021/12/23 02:39:28;;;;;;;78.80;36.20;;;;;;;-6.93;70.43;99799.39;103197;1317;97782;-79
2021/12/23 02:41:56;;;;;;;84.30;38.90;;;;;;;-6.93;70.30;99799.21;103278;1317;107559;-79
2021/12/23 02:44:24;;;;;;;80.10;36.40;;;;;;;-6.96;70.37;99796.09;103271;1317;97868;-79
2021/12/23 02:46:53;;;;;;;84.10;37.40;;;;;;;-7.00;70.54;99792.25;103234;1316;97902;-77
2021/12/23 02:49:21;;;;;;;86.40;36.70;;;;;;;-7.04;70.37;99787.38;102901;1312;203035;-78
2021/12/23 02:51:49;;;;;;;83.60;38.00;;;;;;;-7.08;70.55;99783.55;103108;1317;98357;-76
2021/12/23 02:54:19;;;;;;;85.80;40.60;;;;;;;-7.11;70.56;99777.98;103065;1316;108013;-77
2021/12/23 02:56:49;;;;;;;86.30;39.50;;;;;;;-7.15;70.65;99770.54;103110;1316;99256;-76
2021/12/23 02:59:17;;;;;;;89.20;42.10;;;;;;;-7.18;70.71;99771.70;103038;1319;98033;-76
2021/12/23 03:01:44;;;;;;;95.40;42.40;;;;;;;-7.23;70.87;99764.94;103073;1319;111268;-77
2021/12/23 03:04:17;;;;;;;82.40;35.70;;;;;;;-7.29;70.80;99762.45;103101;1317;95221;-76
2021/12/23 03:06:45;;;;;;;87.10;39.50;;;;;;;-7.35;70.92;99763.78;103241;1317;107820;-76
2021/12/23 03:09:17;;;;;;;87.30;39.90;;;;;;;-7.38;70.92;99760.81;103266;1316;95303;-76
2021/12/23 03:11:45;;;;;;;88.90;40.90;;;;;;;-7.39;70.79;99765.46;103181;1317;95927;-76
2021/12/23 03:14:14;;;;;;;83.10;37.00;;;;;;;-7.39;70.79;99767.17;103154;1321;111487;-76
2021/12/23 03:16:50;;;;;;;81.70;39.10;;;;;;;-7.39;70.88;99764.42;103161;1317;98139;-75
2021/12/23 03:19:18;;;;;;;84.60;38.20;;;;;;;-7.42;71.01;99758.70;103083;1317;107626;-76
2021/12/23 03:21:46;;;;;;;82.60;37.00;;;;;;;-7.44;70.91;99754.00;103101;1317;98008;-76
2021/12/23 03:24:15;;;;;;;76.20;33.60;;;;;;;-7.48;70.93;99751.39;103145;1319;95196;-76
2021/12/23 03:26:44;;;;;;;86.70;36.60;;;;;;;-7.50;71.04;99748.63;103037;1318;111233;-77
2021/12/23 03:29:12;;;;;;;72.90;31.90;;;;;;;-7.55;70.92;99745.80;103066;1319;97862;-77
2021/12/23 03:31:41;;;;;;;78.90;37.60;;;;;;;-7.59;70.97;99743.19;102898;1319;105737;-76
2021/12/23 03:34:09;;;;;;;78.00;35.60;;;;;;;-7.64;70.80;99748.11;102902;1323;95266;-76
2021/12/23 03:36:40;;;;;;;74.10;32.10;;;;;;;-7.67;70.88;99748.41;103122;1315;95292;-77
2021/12/23 03:39:09;;;;;;;86.50;38.30;;;;;;;-7.70;70.96;99748.89;103095;1316;111522;-76
2021/12/23 03:41:38;;;;;;;80.40;35.80;;;;;;;-7.77;71.10;99741.41;103038;1317;97794;-77
2021/12/23 03:44:11;;;;;;;81.40;36.00;;;;;;;-7.84;71.14;99733.05;103148;1320;107853;-76
2021/12/23 03:46:39;;;;;;;78.00;35.60;;;;;;;-7.94;71.27;99729.14;103025;1319;96424;-78
2021/12/23 03:49:12;;;;;;;72.90;31.60;;;;;;;-8.03;71.35;99730.05;103093;1317;97998;-77
2021/12/23 03:51:40;;;;;;;81.90;36.30;;;;;;;-8.11;71.46;99727.71;103073;1319;111622;-77
2021/12/23 03:54:12;;;;;;;80.90;35.00;;;;;;;-8.16;71.53;99726.96;102893;1319;99960;-77
2021/12/23 03:56:41;;;;;;;72.40;29.90;;;;;;;-8.20;71.54;99723.63;102928;1319;106986;-78
2021/12/23 03:59:10;;;;;;;84.20;36.00;;;;;;;-8.24;71.51;99723.75;103031;1316;95269;-77
2021/12/23 04:01:38;;;;;;;75.00;34.00;;;;;;;-8.27;71.49;99720.27;103077;1316;97986;-79
2021/12/23 04:04:07;;;;;;;71.80;34.30;;;;;;;-8.29;71.53;99716.79;103161;1317;111546;-78
2021/12/23 04:06:34;;;;;;;72.30;31.20;;;;;;;-8.29;71.59;99715.08;103035;1316;97931;-77
2021/12/23 04:09:07;;;;;;;70.10;32.50;;;;;;;-8.30;71.59;99715.58;103041;1319;107882;-77
2021/12/23 04:11:35;;;;;;;73.70;33.50;;;;;;;-8.32;71.78;99714.17;102852;1319;97976;-76
2021/12/23 04:14:03;;;;;;;80.50;35.60;;;;;;;-8.34;71.65;99712.94;103123;1317;97916;-77
2021/12/23 04:16:31;;;;;;;73.70;34.10;;;;;;;-8.37;71.75;99707.91;103056;1316;111568;-76
2021/12/23 04:18:59;;;;;;;72.30;33.10;;;;;;;-8.39;71.70;99707.73;103177;1317;97992;-76
2021/12/23 04:21:30;;;;;;;75.70;32.10;;;;;;;-8.38;71.84;99712.03;103069;1316;107857;-78
2021/12/23 04:23:58;;;;;;;73.20;31.50;;;;;;;-8.37;71.80;99717.90;103065;1319;98008;-79
2021/12/23 04:26:31;;;;;;;79.30;34.20;;;;;;;-8.35;71.79;99710.87;103191;1317;97972;-80
2021/12/23 04:28:59;;;;;;;74.00;33.90;;;;;;;-8.34;71.68;99711.56;103184;1317;110206;-79
2021/12/23 04:31:26;;;;;;;72.10;32.70;;;;;;;-8.35;71.79;99707.92;103095;1315;97828;-79
2021/12/23 04:33:57;;;;;;;78.70;33.30;;;;;;;-8.39;71.66;99703.08;103160;1316;108288;-81
2021/12/23 04:36:29;;;;;;;72.30;33.90;;;;;;;-8.44;71.77;99698.01;103042;1320;97905;-78
2021/12/23 04:39:02;;;;;;;83.10;35.30;;;;;;;-8.53;71.80;99694.14;103092;1319;97960;-76
2021/12/23 04:41:35;;;;;;;74.10;32.30;;;;;;;-8.59;71.88;99696.44;103143;1323;111473;-78
2021/12/23 04:44:03;;;;;;;72.20;33.20;;;;;;;-8.62;71.75;99692.96;103026;1319;98011;-77
2021/12/23 04:46:30;;;;;;;78.30;36.60;;;;;;;-8.61;71.84;99690.04;103074;1317;107839;-78
2021/12/23 04:48:58;;;;;;;85.70;35.60;;;;;;;-8.60;71.91;99693.34;103113;1317;97902;-77
2021/12/23 04:51:26;;;;;;;80.30;35.10;;;;;;;-8.60;71.91;99694.20;103130;1321;95194;-77
2021/12/23 04:53:54;;;;;;;83.70;33.10;;;;;;;-8.59;71.92;99693.16;103199;1316;111461;-76
2021/12/23 04:56:22;;;;;;;80.50;33.60;;;;;;;-8.58;71.96;99693.20;103201;1317;98047;-76
2021/12/23 04:58:50;;;;;;;67.80;28.60;;;;;;;-8.53;71.97;99690.69;103112;1316;107537;-77
2021/12/23 05:01:27;;;;;;;78.40;34.60;;;;;;;-8.49;72.01;99686.61;103227;1323;98053;-78
2021/12/23 05:03:55;;;;;;;65.00;30.20;;;;;;;-8.46;71.98;99687.83;103097;1319;97875;-79
2021/12/23 05:06:23;;;;;;;60.50;27.30;;;;;;;-8.40;72.06;99687.06;103075;1316;111532;-84
2021/12/23 05:08:56;;;;;;;60.60;26.20;;;;;;;-8.34;72.13;99686.78;103108;1319;97750;-78
2021/12/23 05:11:24;;;;;;;52.90;23.80;;;;;;;-8.29;72.10;99685.83;103141;1317;107893;-78
2021/12/23 05:13:51;;;;;;;57.30;24.80;;;;;;;-8.24;72.19;99680.22;103199;1317;95300;-78
2021/12/23 05:16:23;;;;;;;53.70;24.50;;;;;;;-8.22;72.16;99679.21;103132;1319;97931;-79
2021/12/23 05:18:51;;;;;;;57.10;25.50;;;;;;;-8.18;72.09;99676.85;102998;1316;111474;-80
2021/12/23 05:21:19;;;;;;;51.90;23.80;;;;;;;-8.13;72.16;99668.83;103148;1316;95276;-78
2021/12/23 05:23:46;;;;;;;49.80;21.90;;;;;;;-8.07;72.26;99659.95;103215;1316;106904;-79
2021/12/23 05:26:14;;;;;;;50.90;20.80;;;;;;;-8.01;72.26;99656.41;103181;1316;97872;-80
2021/12/23 05:28:42;;;;;;;50.90;21.40;;;;;;;-7.97;72.18;99648.04;103241;1316;98047;-80
2021/12/23 05:31:10;;;;;;;48.50;23.10;;;;;;;-7.93;72.33;99645.65;103042;1317;110162;-78
2021/12/23 05:33:38;;;;;;;54.20;23.30;;;;;;;-7.90;72.15;99642.08;102856;1323;98037;-77
2021/12/23 05:36:06;;;;;;;53.20;24.20;;;;;;;-7.87;72.36;99636.08;103057;1316;107733;-76
2021/12/23 05:38:34;;;;;;;55.80;24.20;;;;;;;-7.85;72.25;99631.29;103083;1316;97897;-75
2021/12/23 05:41:02;;;;;;;49.30;23.20;;;;;;;-7.85;72.33;99621.80;103111;1317;95273;-74
2021/12/23 05:43:30;;;;;;;48.30;21.80;;;;;;;-7.83;72.41;99618.05;103109;1317;111590;-74
2021/12/23 05:46:00;;;;;;;46.70;19.40;;;;;;;-7.82;72.37;99612.55;103169;1315;95239;-73
2021/12/23 05:48:29;;;;;;;52.40;21.70;;;;;;;-7.83;72.48;99614.60;103025;1317;107862;-75
2021/12/23 05:50:57;;;;;;;55.20;23.70;;;;;;;-7.88;72.40;99617.48;103038;1317;98050;-75
2021/12/23 05:53:25;;;;;;;53.50;24.00;;;;;;;-7.93;72.41;99613.13;103075;1316;98668;-75
2021/12/23 05:55:53;;;;;;;57.20;24.20;;;;;;;-7.96;72.44;99608.61;103062;1320;111514;-76
2021/12/23 05:58:21;;;;;;;54.10;22.30;;;;;;;-8.02;72.48;99609.41;103171;1317;97880;-76
2021/12/23 06:00:48;;;;;;;58.90;27.80;;;;;;;-8.11;72.37;99604.66;103187;1316;107796;-77
2021/12/23 06:03:16;;;;;;;54.70;27.00;;;;;;;-8.13;72.47;99607.20;103171;1316;95274;-78
2021/12/23 06:05:45;;;;;;;55.00;24.90;;;;;;;-8.14;72.49;99608.06;103137;1316;97879;-78
2021/12/23 06:08:13;;;;;;;52.90;23.00;;;;;;;-8.13;72.36;99609.62;102977;1316;109236;-77
2021/12/23 06:10:41;;;;;;;54.80;27.10;;;;;;;-8.13;72.48;99612.73;103112;1315;97930;-76
2021/12/23 06:13:09;;;;;;;55.30;26.50;;;;;;;-8.10;72.52;99610.51;103610;1316;106380;-77
2021/12/23 06:15:37;;;;;;;50.70;23.80;;;;;;;-8.05;72.58;99610.05;103088;1316;97894;-78
2021/12/23 06:18:06;;;;;;;52.90;23.30;;;;;;;-7.99;72.68;99608.06;103153;1316;97901;-77
2021/12/23 06:20:35;;;;;;;51.50;22.40;;;;;;;-7.92;72.65;99609.86;103121;1316;111611;-77
2021/12/23 06:23:04;;;;;;;48.80;23.00;;;;;;;-7.85;72.74;99609.93;103217;1316;97949;-77
2021/12/23 06:25:34;;;;;;;55.70;23.50;;;;;;;-7.78;72.67;99609.33;103224;1319;107778;-77
2021/12/23 06:28:02;;;;;;;51.80;23.70;;;;;;;-7.71;72.66;99613.35;103011;1317;95944;-75
2021/12/23 06:30:30;;;;;;;50.70;22.20;;;;;;;-7.65;72.83;99615.48;104642;1316;95769;-76
2021/12/23 06:32:59;;;;;;;52.20;24.70;;;;;;;-7.60;72.90;99613.46;103899;1317;109704;-74
2021/12/23 06:35:31;;;;;;;48.20;22.70;;;;;;;-7.55;72.95;99613.33;103204;1316;97925;-76
2021/12/23 06:38:04;;;;;;;52.50;22.50;;;;;;;-7.49;72.85;99612.54;103001;1319;107825;-76
2021/12/23 06:40:33;;;;;;;45.30;21.30;;;;;;;-7.41;72.97;99611.21;102938;1319;98177;-76
2021/12/23 06:43:01;;;;;;;45.30;20.80;;;;;;;-7.34;72.87;99615.60;103141;1315;97054;-78
2021/12/23 06:45:30;;;;;;;48.70;21.90;;;;;;;-7.28;72.89;99611.15;103167;1317;110256;-78
2021/12/23 06:47:58;;;;;;;46.90;22.50;;;;;;;-7.22;73.05;99610.70;102822;1321;98204;-82
2021/12/23 06:50:27;;;;;;;49.50;22.20;;;;;;;-7.18;73.01;99611.59;102987;1321;107834;-77
2021/12/23 06:52:58;;;;;;;51.10;24.70;;;;;;;-7.14;73.07;99606.27;103024;1319;98580;-80
2021/12/23 06:55:26;;;;;;;56.10;26.20;;;;;;;-7.09;73.13;99606.30;102976;1318;96445;-78
2021/12/23 06:57:56;;;;;;;48.30;25.50;;;;;;;-7.04;73.16;99605.48;103189;1316;112585;-77
2021/12/23 07:00:37;;;;;;;50.80;23.20;;;;;;;-6.99;73.20;99599.31;103114;1316;97773;-77
2021/12/23 07:03:05;;;;;;;49.50;22.80;;;;;;;-6.93;73.13;99597.63;102994;1317;107769;-77
2021/12/23 07:05:34;;;;;;;47.50;22.80;;;;;;;-6.88;73.15;99591.28;102787;1318;97893;-77
2021/12/23 07:08:11;;;;;;;46.10;22.70;;;;;;;-6.80;73.26;99587.55;103061;1315;97910;-78
2021/12/23 07:10:41;;;;;;;48.70;25.40;;;;;;;-6.73;73.28;99585.52;103110;1316;112115;-81
2021/12/23 07:13:08;;;;;;;49.70;23.50;;;;;;;-6.67;73.25;99581.91;103168;1319;97257;-80
2021/12/23 07:15:36;;;;;;;51.60;24.00;;;;;;;-6.63;73.19;99576.24;102989;1317;107932;-80
2021/12/23 07:18:04;;;;;;;55.40;27.10;;;;;;;-6.62;73.06;99572.29;103122;1317;98313;-78
2021/12/23 07:20:32;;;;;;;53.50;26.00;;;;;;;-6.57;73.22;99562.13;102945;1319;95344;-77
2021/12/23 07:23:02;;;;;;;54.90;26.10;;;;;;;-6.53;73.28;99552.84;103029;1316;111483;-77
2021/12/23 07:25:30;;;;;;;55.20;26.20;;;;;;;-6.50;73.24;99548.70;103035;1317;97899;-78
2021/12/23 07:27:57;;;;;;;53.30;24.50;;;;;;;-6.48;73.18;99546.64;102943;1322;107804;-78
2021/12/23 07:30:25;;;;;;;53.10;24.90;;;;;;;-6.43;73.41;99547.02;103018;1315;97998;-77
2021/12/23 07:32:54;;;;;;;49.70;24.50;;;;;;;-6.39;73.37;99545.13;103144;1317;96444;-76
2021/12/23 07:35:23;;;;;;;52.20;24.40;;;;;;;-6.34;73.37;99542.21;103114;1316;111693;-77
2021/12/23 07:37:51;;;;;;;56.00;25.20;;;;;;;-6.29;73.41;99544.98;103077;1316;97923;-81
2021/12/23 07:40:20;;;;;;;51.40;22.80;;;;;;;-6.24;73.44;99545.70;103019;1317;107840;-78
2021/12/23 07:42:56;;;;;;;49.90;25.10;;;;;;;-6.23;73.49;99541.56;103078;1317;98690;-80
2021/12/23 07:45:31;;;;;;;46.80;24.20;;;;;;;-6.19;73.54;99548.14;103048;1317;95317;-79
2021/12/23 07:48:01;;;;;;;52.80;23.50;;;;;;;-6.18;73.57;99547.09;103084;1315;111547;-80
2021/12/23 07:50:29;;;;;;;53.70;25.20;;;;;;;-6.18;73.57;99547.27;103121;1316;97922;-79
2021/12/23 07:52:56;;;;;;;48.60;22.90;;;;;;;-6.18;73.48;99540.54;103049;1319;107823;-79
2021/12/23 07:55:24;;;;;;;49.50;24.10;;;;;;;-6.15;73.61;99538.13;103145;1316;97927;-79
2021/12/23 07:57:52;;;;;;;50.50;23.70;;;;;;;-6.12;73.68;99537.97;103133;1315;98017;-83
2021/12/23 08:00:20;;;;;;;53.70;23.40;;;;;;;-6.08;73.76;99536.58;103077;1316;111500;-78
2021/12/23 08:02:49;;;;;;;48.90;24.30;;;;;;;-6.03;73.61;99538.48;103032;1316;97886;-76
2021/12/23 08:05:18;;;;;;;50.80;22.60;;;;;;;-5.97;73.69;99536.23;103087;1316;107846;-76
2021/12/23 08:07:46;;;;;;;49.00;23.10;;;;;;;-5.90;73.75;99532.10;103015;1316;97967;-76
2021/12/23 08:10:18;;;;;;;47.80;23.10;;;;;;;-5.83;73.63;99525.54;102924;1315;97985;-76
2021/12/23 08:12:49;;;;;;;48.50;21.10;;;;;;;-5.77;73.75;99523.83;102870;1318;112391;-78
2021/12/23 08:15:17;;;;;;;39.20;19.80;;;;;;;-5.72;73.80;99521.23;102867;1318;97923;-78
2021/12/23 08:17:46;;;;;;;43.20;20.90;;;;;;;-5.66;73.73;99518.14;102967;1315;107877;-80
2021/12/23 08:20:16;;;;;;;50.00;23.00;;;;;;;-5.63;73.77;99520.04;103308;1315;98004;-79
2021/12/23 08:22:44;;;;;;;47.80;21.50;;;;;;;-5.59;73.74;99519.19;102825;1318;98172;-77
2021/12/23 08:25:14;;;;;;;50.30;25.10;;;;;;;-5.55;73.73;99518.66;102476;1321;111390;-76
2021/12/23 08:27:44;;;;;;;49.30;24.10;;;;;;;-5.50;73.77;99514.85;102913;1318;97885;-76
2021/12/23 08:30:18;;;;;;;46.10;23.50;;;;;;;-5.49;73.87;99512.77;102916;1319;107910;-77
2021/12/23 08:32:49;;;;;;;55.10;25.80;;;;;;;-5.46;73.83;99511.39;102634;1319;98220;-79
2021/12/23 08:35:20;;;;;;;50.80;24.70;;;;;;;-5.41;73.89;99507.08;102930;1319;98021;-78
2021/12/23 08:37:49;;;;;;;54.10;25.70;;;;;;;-5.35;73.85;99504.66;102946;1319;111555;-78
2021/12/23 08:40:23;;;;;;;47.50;22.70;;;;;;;-5.28;73.94;99507.59;102919;1316;97880;-78
2021/12/23 08:42:52;;;;;;;50.90;25.60;;;;;;;-5.19;74.01;99506.37;102912;1316;108011;-76
2021/12/23 08:45:27;;;;;;;45.50;22.70;;;;;;;-5.15;73.91;99504.45;102685;1317;98993;-79
2021/12/23 08:47:57;;;;;;;48.80;22.20;;;;;;;-5.09;73.86;99501.15;102947;1316;96632;-79
2021/12/23 08:50:31;;;;;;;51.80;25.30;;;;;;;-5.04;73.93;99498.20;102850;1318;110974;-81
2021/12/23 08:53:02;;;;;;;50.40;24.30;;;;;;;-5.01;73.86;99494.04;102920;1317;97850;-78
2021/12/23 08:55:31;;;;;;;47.20;23.90;;;;;;;-4.92;73.99;99492.13;102756;1318;107860;-77
2021/12/23 08:58:04;;;;;;;50.40;23.30;;;;;;;-4.84;73.87;99490.54;102878;1319;95953;-77
2021/12/23 09:00:39;;;;;;;50.10;24.40;;;;;;;-4.80;73.91;99486.36;102962;1316;97858;-77
2021/12/23 09:03:10;;;;;;;49.00;25.50;;;;;;;-4.77;73.79;99485.15;102923;1316;111656;-80
2021/12/23 09:05:41;;;;;;;46.70;25.40;;;;;;;-4.73;73.89;99484.45;102993;1316;97991;-79
2021/12/23 09:08:09;;;;;;;49.30;23.90;;;;;;;-4.68;73.93;99477.66;102988;1319;107906;-75
2021/12/23 09:10:39;;;;;;;46.90;23.40;;;;;;;-4.62;73.94;99469.51;102819;1318;97910;-81
2021/12/23 09:13:10;;;;;;;54.80;26.20;;;;;;;-4.53;73.97;99465.66;103084;1316;97892;-87
2021/12/23 09:15:38;;;;;;;47.10;23.10;;;;;;;-4.47;73.87;99467.02;103061;1319;111494;-74
2021/12/23 09:18:06;;;;;;;50.00;25.00;;;;;;;-4.40;73.92;99467.33;102955;1315;98134;-77
2021/12/23 09:20:36;;;;;;;47.60;21.70;;;;;;;-4.39;73.93;99458.14;102981;1316;105508;-74
2021/12/23 09:23:09;;;;;;;45.60;23.10;;;;;;;-4.35;73.90;99457.26;102830;1319;98673;-74
2021/12/23 09:25:38;;;;;;;50.80;25.10;;;;;;;-4.29;73.91;99449.95;102867;1318;95376;-77
2021/12/23 09:33:50;;;;;;;42.70;20.30;;;;;;;-4.09;73.93;99428.88;103046;1316;107839;-74
2021/12/23 09:36:18;;;;;;;48.60;23.20;;;;;;;-4.04;73.81;99424.31;102845;1318;97893;-75
2021/12/23 09:38:46;;;;;;;43.20;20.80;;;;;;;-4.02;73.84;99418.07;103100;1319;95269;-74
2021/12/23 09:41:18;;;;;;;44.70;22.30;;;;;;;-3.98;73.63;99420.47;102981;1319;111463;-75
2021/12/23 09:43:46;;;;;;;43.40;21.00;;;;;;;-3.95;73.81;99416.82;103080;1317;98611;-77
2021/12/23 09:46:18;;;;;;;47.40;22.50;;;;;;;-3.91;73.68;99409.33;102756;1319;107557;-80
2021/12/23 09:48:48;;;;;;;40.30;20.10;;;;;;;-3.84;73.73;99399.73;102966;1316;98592;-76
2021/12/23 09:51:18;;;;;;;46.10;21.80;;;;;;;-3.81;73.37;99393.30;102900;1319;97753;-75
2021/12/23 09:54:06;;;;;;;44.70;20.90;;;;;;;-3.81;73.16;99384.97;102862;1318;111451;-76
2021/12/23 09:56:35;;;;;;;44.50;21.50;;;;;;;-3.81;73.33;99372.84;102776;1318;98844;-78
2021/12/23 09:59:06;;;;;;;42.70;21.20;;;;;;;-3.78;73.38;99368.66;102867;1322;107934;-80
2021/12/23 10:01:36;;;;;;;40.20;21.30;;;;;;;-3.72;73.38;99364.61;102908;1318;97909;-77
2021/12/23 10:04:04;;;;;;;44.20;21.00;;;;;;;-3.64;73.62;99357.77;103042;1318;96101;-78
2021/12/23 10:06:32;;;;;;;41.40;21.40;;;;;;;-3.53;73.56;99354.20;103171;1318;110498;-79
2021/12/23 10:09:02;;;;;;;43.10;22.60;;;;;;;-3.39;73.70;99351.95;102947;1318;97914;-76
2021/12/23 10:32:34;;;;;;;39.10;18.50;;;;;;;-2.42;73.57;99294.23;103118;1316;95297;-71
2021/12/23 10:37:14;;;;;;;38.00;20.50;;;;;;;-2.20;72.80;99289.38;103223;1315;98793;-75
2021/12/23 10:39:51;;;;;;;36.30;18.80;;;;;;;-2.07;73.04;99283.08;103022;1316;105886;-79
2021/12/23 10:42:26;;;;;;;39.60;19.00;;;;;;;-1.99;72.56;99275.45;102937;1319;98051;-78
2021/12/23 10:45:10;;;;;;;39.40;19.10;;;;;;;-1.91;72.41;99273.92;103161;1316;96735;-82
2021/12/23 10:48:05;;;;;;;36.40;17.70;;;;;;;-1.89;72.21;99267.63;103210;1318;110626;-86
2021/12/23 10:50:45;;;;;;;38.10;19.80;;;;;;;-1.92;71.81;99257.61;103142;1313;199756;-82
2021/12/23 10:59:05;;;;;;;38.10;19.70;;;;;;;-1.84;72.34;99246.34;103046;1321;97957;-81
2021/12/23 11:01:37;;;;;;;37.60;18.40;;;;;;;-1.71;72.45;99249.02;102964;1316;111479;-75
2021/12/23 11:04:07;;;;;;;35.10;17.20;;;;;;;-1.62;72.12;99247.46;102700;1318;98026;-76
2021/12/23 11:06:45;;;;;;;36.40;17.40;;;;;;;-1.60;72.21;99243.59;102740;1315;107924;-78
2021/12/23 11:12:13;;;;;;;42.00;19.40;;;;;;;-1.64;71.71;99230.11;102938;1315;97970;-80
2021/12/23 11:37:16;;;;;;;33.70;15.40;;;;;;;-2.11;70.51;99213.98;103227;1315;98761;-81
2021/12/23 11:42:35;;;;;;;31.50;15.50;;;;;;;-2.22;69.85;99207.75;104304;1316;111476;-77
2021/12/23 11:45:06;;;;;;;31.50;15.10;;;;;;;-2.29;69.98;99208.58;103049;1319;97918;-76
2021/12/23 11:47:38;;;;;;;32.70;15.10;;;;;;;-2.29;69.78;99197.13;103073;1317;108013;-77
2021/12/23 11:50:07;;;;;;;29.40;13.90;;;;;;;-2.28;70.20;99194.31;103011;1318;96063;-76
2021/12/23 11:52:35;;;;;;;28.80;13.50;;;;;;;-2.27;69.92;99187.01;103182;1316;96389;-79
2021/12/23 11:55:03;;;;;;;32.80;16.40;;;;;;;-2.33;69.82;99177.21;103136;1316;111408;-75
2021/12/23 11:57:39;;;;;;;39.50;14.30;;;;;;;-2.38;69.51;99172.59;103083;1316;97916;-76
2021/12/23 12:00:32;;;;;;;33.10;15.50;;;;;;;-2.45;69.05;99163.17;103094;1317;107891;-76
2021/12/23 12:03:05;;;;;;;35.00;15.50;;;;;;;-2.51;69.11;99153.58;103076;1317;97875;-76
2021/12/23 12:05:37;;;;;;;32.90;16.00;;;;;;;-2.56;69.18;99149.31;103135;1317;97896;-77
2021/12/23 12:08:10;;;;;;;31.40;14.50;;;;;;;-2.56;69.40;99133.15;103105;1317;111622;-77
2021/12/23 12:10:44;;;;;;;34.40;16.60;;;;;;;-2.57;68.85;99137.52;103034;1316;98696;-77
2021/12/23 12:13:17;;;;;;;33.00;15.50;;;;;;;-2.63;68.94;99130.48;103122;1317;107676;-77
2021/12/23 12:15:50;;;;;;;;;;;;;;;-2.62;68.68;99127.00;103132;1315;96385;-76
2021/12/23 12:18:22;;;;;;;31.70;14.50;;;;;;;-2.65;68.73;99124.14;103130;1317;97781;-76
2021/12/23 12:20:59;;;;;;;32.70;15.90;;;;;;;-2.62;68.96;99121.98;102903;1318;111213;-77
2021/12/23 12:23:36;;;;;;;32.70;14.70;;;;;;;-2.58;69.16;99121.21;103194;1315;97784;-76
2021/12/23 12:26:12;;;;;;;34.40;15.60;;;;;;;-2.54;69.18;99113.85;103050;1316;108808;-77
2021/12/23 12:28:48;;;;;;;28.30;13.30;;;;;;;-2.50;69.22;99114.48;102917;1319;97928;-76
2021/12/23 12:31:23;;;;;;;30.60;14.90;;;;;;;-2.48;68.99;99112.17;102915;1319;98052;-76